createdAt,value
2017-01-30T00:00:59.295Z,0
2017-01-30T00:01:58.833Z,0
2017-01-30T00:02:58.812Z,0
2017-01-30T00:03:58.649Z,0
2017-01-30T00:04:58.780Z,0
2017-01-30T00:05:58.809Z,0
2017-01-30T00:06:59.146Z,0
2017-01-30T00:07:58.738Z,0
2017-01-30T00:08:59.179Z,0
2017-01-30T00:09:58.677Z,0
2017-01-30T00:10:59.080Z,0
2017-01-30T00:11:59.030Z,0
2017-01-30T00:12:59.007Z,0
2017-01-30T00:13:58.612Z,0
2017-01-30T00:14:58.997Z,0
2017-01-30T00:15:58.581Z,0
2017-01-30T00:16:58.964Z,0
2017-01-30T00:17:58.534Z,0
2017-01-30T00:18:58.900Z,0
2017-01-30T00:19:58.877Z,0
2017-01-30T00:20:58.856Z,0
2017-01-30T00:21:58.848Z,0
2017-01-30T00:22:58.838Z,0
2017-01-30T00:23:58.812Z,0
2017-01-30T00:24:58.780Z,0
2017-01-30T00:25:58.761Z,0
2017-01-30T00:26:57.935Z,0
2017-01-30T00:27:58.377Z,0
2017-01-30T00:28:58.690Z,0
2017-01-30T00:29:58.818Z,0
2017-01-30T00:30:58.658Z,0
2017-01-30T00:31:58.283Z,0
2017-01-30T00:32:58.613Z,0
2017-01-30T00:33:58.603Z,0
2017-01-30T00:34:58.584Z,0
2017-01-30T00:35:58.562Z,0
2017-01-30T00:36:58.537Z,0
2017-01-30T00:37:58.525Z,0
2017-01-30T00:38:58.108Z,0
2017-01-30T00:39:58.118Z,0
2017-01-30T00:40:58.466Z,0
2017-01-30T00:41:58.461Z,0
2017-01-30T00:42:58.023Z,0
2017-01-30T00:43:58.396Z,0
2017-01-30T00:44:58.419Z,0
2017-01-30T00:45:58.365Z,0
2017-01-30T00:46:58.365Z,0
2017-01-30T00:47:58.328Z,0
2017-01-30T00:48:58.306Z,0
2017-01-30T00:49:57.907Z,0
2017-01-30T00:50:58.273Z,0
2017-01-30T00:51:58.261Z,0
2017-01-30T00:52:57.831Z,0
2017-01-30T00:53:58.236Z,0
2017-01-30T00:54:58.187Z,0
2017-01-30T00:55:58.166Z,0
2017-01-30T00:56:57.756Z,0
2017-01-30T00:57:58.181Z,0
2017-01-30T00:58:57.722Z,0
2017-01-30T00:59:58.091Z,0
2017-01-30T01:00:58.069Z,0
2017-01-30T01:01:58.057Z,0
2017-01-30T01:02:58.033Z,0
2017-01-30T01:03:58.018Z,0
2017-01-30T01:04:58.022Z,0
2017-01-30T01:05:57.977Z,0
2017-01-30T01:06:57.624Z,0
2017-01-30T01:07:57.939Z,0
2017-01-30T01:08:57.918Z,0
2017-01-30T01:09:57.905Z,0
2017-01-30T01:10:57.880Z,0
2017-01-30T01:11:57.909Z,0
2017-01-30T01:12:57.448Z,0
2017-01-30T01:13:57.434Z,0
2017-01-30T01:14:57.834Z,0
2017-01-30T01:15:57.783Z,0
2017-01-30T01:16:57.764Z,0
2017-01-30T01:17:56.952Z,0
2017-01-30T01:18:57.732Z,0
2017-01-30T01:19:57.367Z,0
2017-01-30T01:20:57.718Z,0
2017-01-30T01:21:57.290Z,0
2017-01-30T01:22:57.478Z,0
2017-01-30T01:23:57.648Z,0
2017-01-30T01:24:56.821Z,0
2017-01-30T01:25:57.595Z,0
2017-01-30T01:26:57.579Z,0
2017-01-30T01:27:57.161Z,0
2017-01-30T01:28:57.540Z,0
2017-01-30T01:29:57.539Z,0
2017-01-30T01:30:57.498Z,0
2017-01-30T01:31:57.095Z,0
2017-01-30T01:32:57.467Z,0
2017-01-30T01:33:57.450Z,0
2017-01-30T01:34:57.417Z,0
2017-01-30T01:35:57.402Z,0
2017-01-30T01:36:57.417Z,0
2017-01-30T01:37:56.964Z,0
2017-01-30T01:38:57.352Z,0
2017-01-30T01:39:57.342Z,0
2017-01-30T01:40:57.356Z,0
2017-01-30T01:41:56.496Z,0
2017-01-30T01:42:57.281Z,0
2017-01-30T01:43:56.885Z,0
2017-01-30T01:44:57.229Z,0
2017-01-30T01:45:56.867Z,0
2017-01-30T01:46:57.198Z,0
2017-01-30T01:47:56.778Z,0
2017-01-30T01:48:57.162Z,0
2017-01-30T01:49:56.742Z,0
2017-01-30T01:50:57.145Z,0
2017-01-30T01:51:56.704Z,0
2017-01-30T01:52:57.074Z,0
2017-01-30T01:53:56.664Z,0
2017-01-30T01:54:57.046Z,0
2017-01-30T01:55:57.027Z,0
2017-01-30T01:56:56.605Z,0
2017-01-30T01:57:56.993Z,0
2017-01-30T01:58:56.968Z,0
2017-01-30T01:59:56.953Z,0
2017-01-30T02:00:56.951Z,0
2017-01-30T02:01:56.125Z,0
2017-01-30T02:02:56.891Z,0
2017-01-30T02:03:57.078Z,0
2017-01-30T02:04:56.854Z,0
2017-01-30T02:05:56.842Z,0
2017-01-30T02:06:56.819Z,0
2017-01-30T02:07:56.795Z,0
2017-01-30T02:08:56.782Z,0
2017-01-30T02:09:56.756Z,0
2017-01-30T02:10:56.769Z,0
2017-01-30T02:11:56.736Z,0
2017-01-30T02:12:56.697Z,0
2017-01-30T02:13:56.681Z,0
2017-01-30T02:14:56.665Z,0
2017-01-30T02:15:56.643Z,0
2017-01-30T02:16:56.625Z,0
2017-01-30T02:17:56.604Z,0
2017-01-30T02:18:56.616Z,0
2017-01-30T02:19:56.598Z,0
2017-01-30T02:20:56.546Z,0
2017-01-30T02:21:56.543Z,0
2017-01-30T02:22:56.120Z,0
2017-01-30T02:23:56.100Z,0
2017-01-30T02:24:56.490Z,0
2017-01-30T02:25:56.456Z,0
2017-01-30T02:26:56.438Z,0
2017-01-30T02:27:56.437Z,0
2017-01-30T02:28:56.400Z,0
2017-01-30T02:29:56.481Z,0
2017-01-30T02:30:56.356Z,0
2017-01-30T02:31:55.949Z,0
2017-01-30T02:32:56.372Z,0
2017-01-30T02:33:56.296Z,0
2017-01-30T02:34:55.944Z,0
2017-01-30T02:35:55.471Z,0
2017-01-30T02:36:56.274Z,0
2017-01-30T02:37:56.220Z,0
2017-01-30T02:38:56.223Z,0
2017-01-30T02:39:55.794Z,0
2017-01-30T02:40:56.171Z,0
2017-01-30T02:41:56.155Z,0
2017-01-30T02:42:56.131Z,0
2017-01-30T02:43:55.726Z,0
2017-01-30T02:44:56.093Z,0
2017-01-30T02:45:56.085Z,0
2017-01-30T02:46:55.693Z,0
2017-01-30T02:47:56.096Z,0
2017-01-30T02:48:55.619Z,0
2017-01-30T02:49:55.207Z,0
2017-01-30T02:50:55.579Z,0
2017-01-30T02:51:55.564Z,0
2017-01-30T02:52:55.935Z,0
2017-01-30T02:53:55.962Z,0
2017-01-30T02:54:55.893Z,0
2017-01-30T02:55:55.873Z,0
2017-01-30T02:56:55.475Z,0
2017-01-30T02:57:55.916Z,0
2017-01-30T02:58:55.835Z,0
2017-01-30T02:59:55.813Z,0
2017-01-30T03:00:55.388Z,0
2017-01-30T03:01:55.374Z,0
2017-01-30T03:02:55.736Z,0
2017-01-30T03:03:55.331Z,0
2017-01-30T03:04:55.754Z,0
2017-01-30T03:05:55.299Z,0
2017-01-30T03:06:55.693Z,0
2017-01-30T03:07:54.869Z,0
2017-01-30T03:08:55.628Z,0
2017-01-30T03:09:55.213Z,0
2017-01-30T03:10:55.610Z,0
2017-01-30T03:11:55.574Z,0
2017-01-30T03:12:55.544Z,0
2017-01-30T03:13:55.522Z,0
2017-01-30T03:14:55.512Z,0
2017-01-30T03:15:55.093Z,0
2017-01-30T03:16:55.464Z,0
2017-01-30T03:17:55.071Z,0
2017-01-30T03:18:55.432Z,0
2017-01-30T03:19:55.413Z,0
2017-01-30T03:20:55.397Z,0
2017-01-30T03:21:55.381Z,0
2017-01-30T03:22:55.383Z,0
2017-01-30T03:23:55.332Z,0
2017-01-30T03:24:55.347Z,0
2017-01-30T03:25:54.900Z,0
2017-01-30T03:26:55.271Z,0
2017-01-30T03:27:55.252Z,0
2017-01-30T03:28:55.259Z,0
2017-01-30T03:29:54.820Z,0
2017-01-30T03:30:54.851Z,0
2017-01-30T03:31:54.782Z,0
2017-01-30T03:32:55.173Z,0
2017-01-30T03:33:55.137Z,0
2017-01-30T03:34:55.128Z,0
2017-01-30T03:35:55.100Z,0
2017-01-30T03:36:55.086Z,0
2017-01-30T03:37:55.066Z,0
2017-01-30T03:38:55.041Z,0
2017-01-30T03:39:55.024Z,0
2017-01-30T03:40:55.005Z,0
2017-01-30T03:41:54.980Z,0
2017-01-30T03:42:54.963Z,0
2017-01-30T03:43:54.971Z,0
2017-01-30T03:44:54.926Z,0
2017-01-30T03:45:54.914Z,0
2017-01-30T03:46:54.882Z,0
2017-01-30T03:47:54.867Z,0
2017-01-30T03:48:54.850Z,0
2017-01-30T03:49:54.434Z,0
2017-01-30T03:50:54.847Z,0
2017-01-30T03:51:54.845Z,0
2017-01-30T03:52:54.772Z,0
2017-01-30T03:53:54.747Z,0
2017-01-30T03:54:54.730Z,0
2017-01-30T03:55:54.349Z,0
2017-01-30T03:56:54.693Z,0
2017-01-30T03:57:54.682Z,0
2017-01-30T03:58:54.261Z,0
2017-01-30T03:59:54.249Z,0
2017-01-30T04:00:54.620Z,0
2017-01-30T04:01:54.601Z,0
2017-01-30T04:02:54.594Z,0
2017-01-30T04:03:54.779Z,0
2017-01-30T04:04:54.142Z,0
2017-01-30T04:05:54.521Z,0
2017-01-30T04:06:54.104Z,0
2017-01-30T04:07:54.530Z,0
2017-01-30T04:08:54.538Z,0
2017-01-30T04:09:54.060Z,0
2017-01-30T04:10:54.077Z,0
2017-01-30T04:11:54.434Z,0
2017-01-30T04:12:54.386Z,0
2017-01-30T04:13:53.987Z,0
2017-01-30T04:14:53.555Z,0
2017-01-30T04:15:54.338Z,0
2017-01-30T04:16:53.909Z,0
2017-01-30T04:17:54.295Z,0
2017-01-30T04:18:54.327Z,0
2017-01-30T04:19:53.847Z,0
2017-01-30T04:20:53.844Z,0
2017-01-30T04:21:53.820Z,0
2017-01-30T04:22:53.808Z,0
2017-01-30T04:23:53.784Z,0
2017-01-30T04:24:53.769Z,0
2017-01-30T04:25:54.137Z,0
2017-01-30T04:26:54.113Z,0
2017-01-30T04:27:54.094Z,0
2017-01-30T04:28:54.074Z,0
2017-01-30T04:29:53.662Z,0
2017-01-30T04:30:53.711Z,0
2017-01-30T04:31:54.020Z,0
2017-01-30T04:32:54.014Z,0
2017-01-30T04:33:53.590Z,0
2017-01-30T04:34:53.974Z,0
2017-01-30T04:35:53.554Z,0
2017-01-30T04:36:53.916Z,0
2017-01-30T04:37:53.897Z,0
2017-01-30T04:38:53.088Z,0
2017-01-30T04:39:53.864Z,0
2017-01-30T04:40:53.848Z,0
2017-01-30T04:41:53.826Z,0
2017-01-30T04:42:53.841Z,0
2017-01-30T04:43:53.809Z,0
2017-01-30T04:44:53.774Z,0
2017-01-30T04:45:53.749Z,0
2017-01-30T04:46:53.325Z,0
2017-01-30T04:47:53.705Z,0
2017-01-30T04:48:53.295Z,0
2017-01-30T04:49:53.667Z,0
2017-01-30T04:50:53.249Z,0
2017-01-30T04:51:53.636Z,0
2017-01-30T04:52:53.619Z,0
2017-01-30T04:53:53.619Z,0
2017-01-30T04:54:53.574Z,0
2017-01-30T04:55:53.559Z,0
2017-01-30T04:56:53.532Z,0
2017-01-30T04:57:53.513Z,0
2017-01-30T04:58:53.494Z,0
2017-01-30T04:59:53.083Z,0
2017-01-30T05:00:53.454Z,0
2017-01-30T05:01:53.043Z,0
2017-01-30T05:02:53.015Z,0
2017-01-30T05:03:53.019Z,0
2017-01-30T05:04:53.398Z,0
2017-01-30T05:05:53.376Z,0
2017-01-30T05:06:52.945Z,0
2017-01-30T05:07:52.923Z,0
2017-01-30T05:08:53.302Z,0
2017-01-30T05:09:52.884Z,0
2017-01-30T05:10:53.265Z,0
2017-01-30T05:11:53.238Z,0
2017-01-30T05:12:52.831Z,0
2017-01-30T05:13:53.207Z,0
2017-01-30T05:14:53.180Z,0
2017-01-30T05:15:53.158Z,0
2017-01-30T05:16:52.801Z,0
2017-01-30T05:17:53.135Z,0
2017-01-30T05:18:52.715Z,0
2017-01-30T05:19:53.126Z,0
2017-01-30T05:20:53.074Z,0
2017-01-30T05:21:53.055Z,0
2017-01-30T05:22:53.051Z,0
2017-01-30T05:23:53.012Z,0
2017-01-30T05:24:52.986Z,0
2017-01-30T05:25:52.971Z,0
2017-01-30T05:26:52.949Z,0
2017-01-30T05:27:52.955Z,0
2017-01-30T05:28:52.517Z,0
2017-01-30T05:29:52.496Z,0
2017-01-30T05:30:52.875Z,0
2017-01-30T05:31:52.863Z,0
2017-01-30T05:32:52.855Z,0
2017-01-30T05:33:52.813Z,0
2017-01-30T05:34:52.793Z,0
2017-01-30T05:35:52.774Z,0
2017-01-30T05:36:52.761Z,0
2017-01-30T05:37:52.744Z,0
2017-01-30T05:38:52.715Z,0
2017-01-30T05:39:52.709Z,0
2017-01-30T05:40:52.675Z,0
2017-01-30T05:41:52.663Z,0
2017-01-30T05:42:52.240Z,0
2017-01-30T05:43:52.222Z,0
2017-01-30T05:44:52.609Z,0
2017-01-30T05:45:52.582Z,0
2017-01-30T05:46:52.169Z,0
2017-01-30T05:47:52.590Z,0
2017-01-30T05:48:52.124Z,0
2017-01-30T05:49:52.512Z,0
2017-01-30T05:50:52.485Z,0
2017-01-30T05:51:52.468Z,0
2017-01-30T05:52:52.447Z,0
2017-01-30T05:53:52.034Z,0
2017-01-30T05:54:52.438Z,0
2017-01-30T05:55:52.381Z,0
2017-01-30T05:56:52.374Z,0
2017-01-30T05:57:52.372Z,0
2017-01-30T05:58:52.341Z,0
2017-01-30T05:59:52.314Z,0
2017-01-30T06:00:52.306Z,0
2017-01-30T06:01:52.272Z,0
2017-01-30T06:02:52.249Z,0
2017-01-30T06:03:52.439Z,0
2017-01-30T06:04:52.235Z,0
2017-01-30T06:05:52.191Z,0
2017-01-30T06:06:52.166Z,0
2017-01-30T06:07:52.192Z,0
2017-01-30T06:08:52.187Z,0
2017-01-30T06:09:51.729Z,0
2017-01-30T06:10:52.095Z,0
2017-01-30T06:11:51.701Z,0
2017-01-30T06:12:51.715Z,0
2017-01-30T06:13:52.046Z,0
2017-01-30T06:14:52.017Z,0
2017-01-30T06:15:51.994Z,0
2017-01-30T06:16:51.976Z,0
2017-01-30T06:17:51.566Z,0
2017-01-30T06:18:51.935Z,0
2017-01-30T06:19:51.920Z,0
2017-01-30T06:20:51.903Z,0
2017-01-30T06:21:51.886Z,0
2017-01-30T06:22:51.861Z,0
2017-01-30T06:23:51.845Z,0
2017-01-30T06:24:51.821Z,0
2017-01-30T06:25:51.803Z,0
2017-01-30T06:26:51.785Z,0
2017-01-30T06:27:51.760Z,0
2017-01-30T06:28:51.746Z,0
2017-01-30T06:29:51.767Z,0
2017-01-30T06:30:51.732Z,0
2017-01-30T06:31:51.687Z,0
2017-01-30T06:32:51.666Z,0
2017-01-30T06:33:51.642Z,0
2017-01-30T06:34:51.234Z,0
2017-01-30T06:35:51.216Z,0
2017-01-30T06:36:51.602Z,0
2017-01-30T06:37:51.607Z,0
2017-01-30T06:38:50.773Z,0
2017-01-30T06:39:51.532Z,0
2017-01-30T06:40:51.508Z,0
2017-01-30T06:41:51.485Z,0
2017-01-30T06:42:51.498Z,0
2017-01-30T06:43:51.454Z,0
2017-01-30T06:44:51.028Z,0
2017-01-30T06:45:51.022Z,0
2017-01-30T06:46:51.390Z,0
2017-01-30T06:47:51.369Z,0
2017-01-30T06:48:51.341Z,0
2017-01-30T06:49:51.330Z,0
2017-01-30T06:50:51.319Z,0
2017-01-30T06:51:51.303Z,0
2017-01-30T06:52:51.285Z,0
2017-01-30T06:53:50.854Z,0
2017-01-30T06:54:51.233Z,0
2017-01-30T06:55:50.813Z,0
2017-01-30T06:56:50.801Z,0
2017-01-30T06:57:50.402Z,0
2017-01-30T06:58:50.776Z,0
2017-01-30T06:59:51.144Z,0
2017-01-30T07:00:51.117Z,0
2017-01-30T07:01:51.099Z,0
2017-01-30T07:02:51.077Z,0
2017-01-30T07:03:50.666Z,0
2017-01-30T07:04:50.644Z,0
2017-01-30T07:05:51.016Z,0
2017-01-30T07:06:50.986Z,0
2017-01-30T07:07:50.987Z,0
2017-01-30T07:08:50.957Z,0
2017-01-30T07:09:50.927Z,0
2017-01-30T07:10:50.521Z,0
2017-01-30T07:11:50.897Z,0
2017-01-30T07:12:50.886Z,0
2017-01-30T07:13:50.854Z,0
2017-01-30T07:14:50.832Z,0
2017-01-30T07:15:50.808Z,0
2017-01-30T07:16:50.808Z,0
2017-01-30T07:17:50.786Z,0
2017-01-30T07:18:50.755Z,0
2017-01-30T07:19:50.351Z,0
2017-01-30T07:20:50.717Z,0
2017-01-30T07:21:50.292Z,0
2017-01-30T07:22:50.734Z,0
2017-01-30T07:23:50.651Z,0
2017-01-30T07:24:50.633Z,0
2017-01-30T07:25:50.214Z,0
2017-01-30T07:26:50.589Z,0
2017-01-30T07:27:50.567Z,0
2017-01-30T07:28:50.153Z,0
2017-01-30T07:29:50.561Z,0
2017-01-30T07:30:50.509Z,0
2017-01-30T07:31:50.491Z,0
2017-01-30T07:32:50.475Z,0
2017-01-30T07:33:50.457Z,0
2017-01-30T07:34:50.433Z,0
2017-01-30T07:35:50.422Z,0
2017-01-30T07:36:50.423Z,0
2017-01-30T07:37:50.821Z,0
2017-01-30T07:38:50.351Z,0
2017-01-30T07:39:49.933Z,5
2017-01-30T07:40:49.917Z,5
2017-01-30T07:41:50.303Z,5
2017-01-30T07:42:50.324Z,5
2017-01-30T07:43:49.861Z,5
2017-01-30T07:44:50.231Z,5
2017-01-30T07:45:49.813Z,5
2017-01-30T07:46:49.797Z,5
2017-01-30T07:47:50.167Z,5
2017-01-30T07:48:50.150Z,10
2017-01-30T07:49:50.128Z,10
2017-01-30T07:50:50.139Z,10
2017-01-30T07:51:50.087Z,15
2017-01-30T07:52:49.675Z,15
2017-01-30T07:53:50.065Z,20
2017-01-30T07:54:50.030Z,20
2017-01-30T07:55:50.012Z,20
2017-01-30T07:56:50.000Z,15
2017-01-30T07:57:49.973Z,20
2017-01-30T07:58:49.950Z,15
2017-01-30T07:59:49.540Z,15
2017-01-30T08:00:49.921Z,15
2017-01-30T08:01:49.901Z,20
2017-01-30T08:02:49.476Z,15
2017-01-30T08:03:50.065Z,15
2017-01-30T08:04:49.830Z,10
2017-01-30T08:05:49.436Z,15
2017-01-30T08:06:49.397Z,15
2017-01-30T08:07:49.776Z,15
2017-01-30T08:08:49.760Z,15
2017-01-30T08:09:49.736Z,15
2017-01-30T08:10:49.715Z,10
2017-01-30T08:11:49.698Z,15
2017-01-30T08:12:49.287Z,10
2017-01-30T08:13:49.685Z,10
2017-01-30T08:14:49.651Z,10
2017-01-30T08:15:49.616Z,10
2017-01-30T08:16:49.592Z,10
2017-01-30T08:17:49.223Z,15
2017-01-30T08:18:49.162Z,15
2017-01-30T08:19:49.537Z,15
2017-01-30T08:20:49.118Z,20
2017-01-30T08:21:49.559Z,20
2017-01-30T08:22:48.686Z,15
2017-01-30T08:23:49.505Z,15
2017-01-30T08:24:49.456Z,20
2017-01-30T08:25:49.433Z,25
2017-01-30T08:26:49.431Z,20
2017-01-30T08:27:49.381Z,20
2017-01-30T08:28:49.353Z,15
2017-01-30T08:29:49.341Z,15
2017-01-30T08:30:49.343Z,15
2017-01-30T08:31:48.899Z,15
2017-01-30T08:32:48.880Z,20
2017-01-30T08:33:49.266Z,20
2017-01-30T08:34:49.237Z,20
2017-01-30T08:35:49.215Z,15
2017-01-30T08:36:48.807Z,10
2017-01-30T08:37:49.172Z,15
2017-01-30T08:38:49.188Z,15
2017-01-30T08:39:48.738Z,20
2017-01-30T08:40:49.115Z,15
2017-01-30T08:41:49.122Z,15
2017-01-30T08:42:49.081Z,20
2017-01-30T08:43:49.049Z,15
2017-01-30T08:44:49.033Z,10
2017-01-30T08:45:48.645Z,20
2017-01-30T08:46:48.617Z,20
2017-01-30T08:47:48.612Z,15
2017-01-30T08:48:48.974Z,20
2017-01-30T08:49:48.545Z,20
2017-01-30T08:50:48.516Z,15
2017-01-30T08:51:48.524Z,15
2017-01-30T08:52:48.878Z,20
2017-01-30T08:53:48.886Z,25
2017-01-30T08:54:48.849Z,25
2017-01-30T08:55:48.433Z,20
2017-01-30T08:56:48.796Z,15
2017-01-30T08:57:48.392Z,15
2017-01-30T08:58:48.785Z,20
2017-01-30T08:59:48.739Z,20
2017-01-30T09:00:48.724Z,25
2017-01-30T09:01:48.700Z,30
2017-01-30T09:02:48.333Z,30
2017-01-30T09:03:48.663Z,35
2017-01-30T09:04:48.247Z,45
2017-01-30T09:05:48.626Z,60
2017-01-30T09:06:48.626Z,60
2017-01-30T09:07:48.577Z,60
2017-01-30T09:08:48.624Z,55
2017-01-30T09:09:48.542Z,75
2017-01-30T09:10:48.586Z,90
2017-01-30T09:11:48.508Z,75
2017-01-30T09:12:48.498Z,100
2017-01-30T09:13:48.461Z,85
2017-01-30T09:14:48.472Z,70
2017-01-30T09:15:48.429Z,70
2017-01-30T09:16:48.422Z,60
2017-01-30T09:17:48.398Z,50
2017-01-30T09:18:48.395Z,55
2017-01-30T09:19:47.564Z,70
2017-01-30T09:20:48.334Z,85
2017-01-30T09:21:48.342Z,100
2017-01-30T09:22:48.290Z,95
2017-01-30T09:23:48.264Z,110
2017-01-30T09:24:48.256Z,95
2017-01-30T09:25:48.233Z,105
2017-01-30T09:26:47.826Z,100
2017-01-30T09:27:47.804Z,110
2017-01-30T09:28:47.818Z,85
2017-01-30T09:29:47.759Z,85
2017-01-30T09:30:48.132Z,80
2017-01-30T09:31:47.720Z,70
2017-01-30T09:32:47.727Z,70
2017-01-30T09:33:48.081Z,75
2017-01-30T09:34:48.063Z,90
2017-01-30T09:35:48.045Z,75
2017-01-30T09:36:48.020Z,105
2017-01-30T09:37:48.020Z,95
2017-01-30T09:38:47.982Z,105
2017-01-30T09:39:47.998Z,80
2017-01-30T09:40:47.548Z,90
2017-01-30T09:41:47.922Z,80
2017-01-30T09:42:47.896Z,75
2017-01-30T09:43:47.915Z,75
2017-01-30T09:44:47.527Z,65
2017-01-30T09:45:47.852Z,80
2017-01-30T09:46:47.440Z,75
2017-01-30T09:47:47.808Z,70
2017-01-30T09:48:46.998Z,55
2017-01-30T09:49:47.773Z,65
2017-01-30T09:50:47.751Z,55
2017-01-30T09:51:47.339Z,60
2017-01-30T09:52:47.712Z,65
2017-01-30T09:53:47.700Z,70
2017-01-30T09:54:47.672Z,70
2017-01-30T09:55:47.659Z,70
2017-01-30T09:56:47.634Z,65
2017-01-30T09:57:47.615Z,80
2017-01-30T09:58:47.221Z,75
2017-01-30T09:59:47.577Z,70
2017-01-30T10:00:47.602Z,70
2017-01-30T10:01:47.535Z,70
2017-01-30T10:02:47.520Z,60
2017-01-30T10:03:47.308Z,70
2017-01-30T10:04:47.480Z,85
2017-01-30T10:05:47.468Z,85
2017-01-30T10:06:47.448Z,80
2017-01-30T10:07:47.426Z,100
2017-01-30T10:08:47.013Z,90
2017-01-30T10:09:47.387Z,95
2017-01-30T10:10:47.365Z,105
2017-01-30T10:11:47.384Z,90
2017-01-30T10:12:46.942Z,85
2017-01-30T10:13:46.517Z,90
2017-01-30T10:14:46.497Z,75
2017-01-30T10:15:47.324Z,85
2017-01-30T10:16:47.252Z,80
2017-01-30T10:17:46.841Z,85
2017-01-30T10:18:47.223Z,80
2017-01-30T10:19:47.233Z,100
2017-01-30T10:20:47.180Z,100
2017-01-30T10:21:46.777Z,90
2017-01-30T10:22:46.784Z,115
2017-01-30T10:23:47.163Z,105
2017-01-30T10:24:47.115Z,95
2017-01-30T10:25:46.702Z,115
2017-01-30T10:26:47.076Z,100
2017-01-30T10:27:47.059Z,90
2017-01-30T10:28:47.043Z,75
2017-01-30T10:29:47.079Z,80
2017-01-30T10:30:47.027Z,75
2017-01-30T10:31:46.572Z,85
2017-01-30T10:32:46.965Z,80
2017-01-30T10:33:46.558Z,85
2017-01-30T10:34:46.918Z,60
2017-01-30T10:35:46.522Z,65
2017-01-30T10:36:46.482Z,65
2017-01-30T10:37:46.856Z,80
2017-01-30T10:38:46.454Z,85
2017-01-30T10:39:46.833Z,85
2017-01-30T10:40:46.807Z,90
2017-01-30T10:41:46.790Z,90
2017-01-30T10:42:46.370Z,95
2017-01-30T10:43:46.784Z,105
2017-01-30T10:44:46.729Z,110
2017-01-30T10:45:46.715Z,100
2017-01-30T10:46:46.693Z,95
2017-01-30T10:47:46.279Z,85
2017-01-30T10:48:46.662Z,85
2017-01-30T10:49:46.640Z,90
2017-01-30T10:50:46.623Z,70
2017-01-30T10:51:46.606Z,70
2017-01-30T10:52:46.579Z,75
2017-01-30T10:53:46.164Z,70
2017-01-30T10:54:46.551Z,70
2017-01-30T10:55:46.531Z,80
2017-01-30T10:56:46.144Z,80
2017-01-30T10:57:46.103Z,85
2017-01-30T10:58:46.469Z,85
2017-01-30T10:59:46.466Z,75
2017-01-30T11:00:46.036Z,75
2017-01-30T11:01:46.417Z,80
2017-01-30T11:02:46.397Z,80
2017-01-30T11:03:46.387Z,85
2017-01-30T11:04:46.359Z,90
2017-01-30T11:05:45.941Z,75
2017-01-30T11:06:46.316Z,75
2017-01-30T11:07:45.909Z,90
2017-01-30T11:08:45.897Z,75
2017-01-30T11:09:46.294Z,75
2017-01-30T11:10:46.246Z,75
2017-01-30T11:11:45.438Z,75
2017-01-30T11:12:46.213Z,80
2017-01-30T11:13:46.228Z,75
2017-01-30T11:14:46.171Z,80
2017-01-30T11:15:46.152Z,80
2017-01-30T11:16:46.140Z,85
2017-01-30T11:17:46.117Z,80
2017-01-30T11:18:46.092Z,75
2017-01-30T11:19:46.081Z,80
2017-01-30T11:20:46.058Z,85
2017-01-30T11:21:45.642Z,90
2017-01-30T11:22:46.022Z,75
2017-01-30T11:23:46.004Z,75
2017-01-30T11:24:45.986Z,75
2017-01-30T11:25:45.963Z,70
2017-01-30T11:26:45.954Z,65
2017-01-30T11:27:45.928Z,60
2017-01-30T11:28:45.921Z,65
2017-01-30T11:29:45.908Z,60
2017-01-30T11:30:45.877Z,60
2017-01-30T11:31:45.474Z,60
2017-01-30T11:32:45.835Z,65
2017-01-30T11:33:45.828Z,65
2017-01-30T11:34:45.458Z,60
2017-01-30T11:35:45.782Z,60
2017-01-30T11:36:45.763Z,60
2017-01-30T11:37:45.783Z,60
2017-01-30T11:38:45.340Z,60
2017-01-30T11:39:45.315Z,65
2017-01-30T11:40:45.693Z,75
2017-01-30T11:41:45.674Z,65
2017-01-30T11:42:45.666Z,70
2017-01-30T11:43:45.659Z,65
2017-01-30T11:44:45.614Z,65
2017-01-30T11:45:45.597Z,65
2017-01-30T11:46:45.605Z,65
2017-01-30T11:47:45.560Z,65
2017-01-30T11:48:45.551Z,60
2017-01-30T11:49:45.567Z,55
2017-01-30T11:50:45.507Z,50
2017-01-30T11:51:45.487Z,55
2017-01-30T11:52:45.491Z,55
2017-01-30T11:53:45.468Z,60
2017-01-30T11:54:45.037Z,60
2017-01-30T11:55:45.053Z,60
2017-01-30T11:56:45.395Z,55
2017-01-30T11:57:45.379Z,65
2017-01-30T11:58:45.368Z,60
2017-01-30T11:59:45.395Z,60
2017-01-30T12:00:45.333Z,65
2017-01-30T12:01:45.316Z,70
2017-01-30T12:02:45.286Z,55
2017-01-30T12:03:45.262Z,55
2017-01-30T12:04:45.456Z,55
2017-01-30T12:05:45.239Z,45
2017-01-30T12:06:45.252Z,55
2017-01-30T12:07:45.193Z,60
2017-01-30T12:08:44.786Z,55
2017-01-30T12:09:45.163Z,60
2017-01-30T12:10:45.139Z,55
2017-01-30T12:11:44.729Z,50
2017-01-30T12:12:44.716Z,55
2017-01-30T12:13:45.092Z,60
2017-01-30T12:14:45.100Z,60
2017-01-30T12:15:45.049Z,70
2017-01-30T12:16:45.047Z,65
2017-01-30T12:17:45.018Z,65
2017-01-30T12:18:44.607Z,60
2017-01-30T12:19:45.032Z,65
2017-01-30T12:20:44.972Z,60
2017-01-30T12:21:44.942Z,55
2017-01-30T12:22:44.925Z,70
2017-01-30T12:23:44.910Z,60
2017-01-30T12:24:44.493Z,60
2017-01-30T12:25:44.872Z,55
2017-01-30T12:26:44.865Z,60
2017-01-30T12:27:44.835Z,65
2017-01-30T12:28:44.022Z,55
2017-01-30T12:29:44.800Z,50
2017-01-30T12:30:44.776Z,50
2017-01-30T12:31:44.754Z,60
2017-01-30T12:32:44.349Z,65
2017-01-30T12:33:44.329Z,60
2017-01-30T12:34:43.912Z,60
2017-01-30T12:35:44.717Z,70
2017-01-30T12:36:44.671Z,65
2017-01-30T12:37:44.643Z,70
2017-01-30T12:38:44.631Z,60
2017-01-30T12:39:44.621Z,65
2017-01-30T12:40:44.600Z,65
2017-01-30T12:41:43.796Z,60
2017-01-30T12:42:44.561Z,60
2017-01-30T12:43:44.154Z,60
2017-01-30T12:44:44.528Z,55
2017-01-30T12:45:44.108Z,60
2017-01-30T12:46:44.092Z,60
2017-01-30T12:47:44.479Z,65
2017-01-30T12:48:44.084Z,65
2017-01-30T12:49:43.643Z,60
2017-01-30T12:50:44.026Z,60
2017-01-30T12:51:44.057Z,55
2017-01-30T12:52:44.383Z,50
2017-01-30T12:53:44.387Z,50
2017-01-30T12:54:43.951Z,55
2017-01-30T12:55:44.326Z,50
2017-01-30T12:56:44.301Z,50
2017-01-30T12:57:44.301Z,50
2017-01-30T12:58:44.326Z,45
2017-01-30T12:59:44.245Z,50
2017-01-30T13:00:44.287Z,60
2017-01-30T13:01:44.217Z,55
2017-01-30T13:02:44.204Z,60
2017-01-30T13:03:43.813Z,60
2017-01-30T13:04:44.160Z,45
2017-01-30T13:05:43.391Z,50
2017-01-30T13:06:44.169Z,45
2017-01-30T13:07:43.332Z,45
2017-01-30T13:08:44.093Z,50
2017-01-30T13:09:43.673Z,50
2017-01-30T13:10:44.048Z,55
2017-01-30T13:11:44.039Z,60
2017-01-30T13:12:44.018Z,50
2017-01-30T13:13:43.604Z,45
2017-01-30T13:14:43.984Z,50
2017-01-30T13:15:43.970Z,50
2017-01-30T13:16:43.616Z,50
2017-01-30T13:17:43.947Z,50
2017-01-30T13:18:43.915Z,50
2017-01-30T13:19:43.903Z,45
2017-01-30T13:20:43.984Z,45
2017-01-30T13:21:43.459Z,40
2017-01-30T13:22:43.444Z,45
2017-01-30T13:23:43.852Z,35
2017-01-30T13:24:43.405Z,40
2017-01-30T13:25:43.390Z,45
2017-01-30T13:26:43.763Z,40
2017-01-30T13:27:43.353Z,40
2017-01-30T13:28:43.731Z,35
2017-01-30T13:29:43.312Z,40
2017-01-30T13:30:43.692Z,45
2017-01-30T13:31:43.682Z,50
2017-01-30T13:32:43.679Z,55
2017-01-30T13:33:43.640Z,40
2017-01-30T13:34:43.629Z,40
2017-01-30T13:35:44.215Z,60
2017-01-30T13:36:43.616Z,40
2017-01-30T13:37:42.777Z,35
2017-01-30T13:38:43.539Z,30
2017-01-30T13:39:43.130Z,35
2017-01-30T13:40:43.505Z,35
2017-01-30T13:41:43.108Z,30
2017-01-30T13:42:43.074Z,45
2017-01-30T13:43:43.505Z,40
2017-01-30T13:44:43.435Z,45
2017-01-30T13:45:43.019Z,45
2017-01-30T13:46:43.401Z,55
2017-01-30T13:47:43.388Z,65
2017-01-30T13:48:42.968Z,80
2017-01-30T13:49:43.388Z,85
2017-01-30T13:50:43.333Z,80
2017-01-30T13:51:43.338Z,60
2017-01-30T13:52:43.294Z,65
2017-01-30T13:53:43.294Z,60
2017-01-30T13:54:43.274Z,70
2017-01-30T13:55:43.232Z,65
2017-01-30T13:56:43.217Z,95
2017-01-30T13:57:43.220Z,90
2017-01-30T13:58:43.201Z,60
2017-01-30T13:59:43.194Z,70
2017-01-30T14:00:43.142Z,50
2017-01-30T14:01:43.144Z,40
2017-01-30T14:02:42.718Z,45
2017-01-30T14:03:42.718Z,50
2017-01-30T14:04:42.887Z,45
2017-01-30T14:05:43.061Z,40
2017-01-30T14:06:43.101Z,40
2017-01-30T14:07:43.017Z,30
2017-01-30T14:08:42.606Z,35
2017-01-30T14:09:42.994Z,30
2017-01-30T14:10:42.573Z,30
2017-01-30T14:11:42.953Z,25
2017-01-30T14:12:42.535Z,25
2017-01-30T14:13:42.911Z,25
2017-01-30T14:14:42.896Z,25
2017-01-30T14:15:42.482Z,15
2017-01-30T14:16:42.466Z,15
2017-01-30T14:17:42.846Z,15
2017-01-30T14:18:42.419Z,15
2017-01-30T14:19:42.427Z,15
2017-01-30T14:20:42.396Z,10
2017-01-30T14:21:42.769Z,10
2017-01-30T14:22:42.781Z,10
2017-01-30T14:23:42.342Z,20
2017-01-30T14:24:42.712Z,15
2017-01-30T14:25:42.698Z,15
2017-01-30T14:26:42.282Z,15
2017-01-30T14:27:42.661Z,20
2017-01-30T14:28:42.640Z,20
2017-01-30T14:29:42.272Z,15
2017-01-30T14:30:42.625Z,15
2017-01-30T14:31:42.592Z,20